sensor_id;sensor_type;location;lat;lon;timestamp;P1;durP1;ratioP1;P2;durP2;ratioP2
23588;SDS011;11972;48.078;11.876;2023-11-21T00:03:59;4.78;;;1.92;;
23588;SDS011;11972;48.078;11.876;2023-11-21T00:08:01;6.32;;;2.72;;
23588;SDS011;11972;48.078;11.876;2023-11-21T00:12:02;10.43;;;2.65;;
23588;SDS011;11972;48.078;11.876;2023-11-21T00:16:03;5.88;;;2.60;;
23588;SDS011;11972;48.078;11.876;2023-11-21T00:20:05;7.68;;;2.22;;
23588;SDS011;11972;48.078;11.876;2023-11-21T00:24:06;3.53;;;1.67;;
23588;SDS011;11972;48.078;11.876;2023-11-21T00:28:07;3.60;;;1.90;;
23588;SDS011;11972;48.078;11.876;2023-11-21T00:32:08;7.90;;;2.30;;
23588;SDS011;11972;48.078;11.876;2023-11-21T00:36:09;3.42;;;2.22;;
23588;SDS011;11972;48.078;11.876;2023-11-21T00:40:10;6.60;;;2.30;;
23588;SDS011;11972;48.078;11.876;2023-11-21T00:44:11;4.82;;;1.65;;
23588;SDS011;11972;48.078;11.876;2023-11-21T00:48:11;6.38;;;1.70;;
23588;SDS011;11972;48.078;11.876;2023-11-21T00:52:13;6.28;;;2.20;;
23588;SDS011;11972;48.078;11.876;2023-11-21T00:56:14;6.10;;;1.35;;
23588;SDS011;11972;48.078;11.876;2023-11-21T01:00:15;6.15;;;1.30;;
23588;SDS011;11972;48.078;11.876;2023-11-21T01:04:17;4.80;;;1.17;;
23588;SDS011;11972;48.078;11.876;2023-11-21T01:08:17;6.22;;;1.80;;
23588;SDS011;11972;48.078;11.876;2023-11-21T01:12:17;5.10;;;1.50;;
23588;SDS011;11972;48.078;11.876;2023-11-21T01:16:21;2.55;;;1.50;;
23588;SDS011;11972;48.078;11.876;2023-11-21T01:20:22;5.60;;;1.20;;
23588;SDS011;11972;48.078;11.876;2023-11-21T01:24:22;3.92;;;1.35;;
23588;SDS011;11972;48.078;11.876;2023-11-21T01:28:22;3.55;;;1.10;;
23588;SDS011;11972;48.078;11.876;2023-11-21T01:32:23;3.83;;;1.27;;
23588;SDS011;11972;48.078;11.876;2023-11-21T01:36:23;4.25;;;1.15;;
23588;SDS011;11972;48.078;11.876;2023-11-21T01:40:34;5.78;;;1.27;;
23588;SDS011;11972;48.078;11.876;2023-11-21T01:44:35;4.32;;;1.17;;
23588;SDS011;11972;48.078;11.876;2023-11-21T01:48:36;9.27;;;1.20;;
23588;SDS011;11972;48.078;11.876;2023-11-21T01:52:36;2.72;;;0.93;;
23588;SDS011;11972;48.078;11.876;2023-11-21T01:56:37;3.20;;;1.00;;
23588;SDS011;11972;48.078;11.876;2023-11-21T02:00:37;2.53;;;1.00;;
23588;SDS011;11972;48.078;11.876;2023-11-21T02:04:38;5.50;;;1.35;;
23588;SDS011;11972;48.078;11.876;2023-11-21T02:08:39;3.63;;;0.85;;
23588;SDS011;11972;48.078;11.876;2023-11-21T02:12:39;4.80;;;2.40;;
23588;SDS011;11972;48.078;11.876;2023-11-21T02:16:42;5.22;;;1.55;;
23588;SDS011;11972;48.078;11.876;2023-11-21T02:20:45;6.95;;;1.45;;
23588;SDS011;11972;48.078;11.876;2023-11-21T02:24:47;4.25;;;1.15;;
23588;SDS011;11972;48.078;11.876;2023-11-21T02:28:47;3.83;;;1.02;;
23588;SDS011;11972;48.078;11.876;2023-11-21T02:32:48;2.38;;;1.10;;
23588;SDS011;11972;48.078;11.876;2023-11-21T02:36:48;3.40;;;1.15;;
23588;SDS011;11972;48.078;11.876;2023-11-21T02:40:51;5.60;;;1.42;;
23588;SDS011;11972;48.078;11.876;2023-11-21T02:44:52;4.03;;;1.13;;
23588;SDS011;11972;48.078;11.876;2023-11-21T02:48:52;2.40;;;0.68;;
23588;SDS011;11972;48.078;11.876;2023-11-21T02:52:55;4.18;;;0.68;;
23588;SDS011;11972;48.078;11.876;2023-11-21T02:56:57;2.55;;;0.80;;
23588;SDS011;11972;48.078;11.876;2023-11-21T03:00:58;5.13;;;0.77;;
23588;SDS011;11972;48.078;11.876;2023-11-21T03:04:59;4.03;;;0.70;;
23588;SDS011;11972;48.078;11.876;2023-11-21T03:08:59;4.97;;;0.70;;
23588;SDS011;11972;48.078;11.876;2023-11-21T03:13:00;7.05;;;0.88;;
23588;SDS011;11972;48.078;11.876;2023-11-21T03:17:00;3.40;;;0.80;;
23588;SDS011;11972;48.078;11.876;2023-11-21T03:21:00;5.97;;;0.90;;
23588;SDS011;11972;48.078;11.876;2023-11-21T03:25:01;6.00;;;1.08;;
23588;SDS011;11972;48.078;11.876;2023-11-21T03:29:01;3.88;;;0.90;;
23588;SDS011;11972;48.078;11.876;2023-11-21T03:33:01;2.58;;;0.80;;
23588;SDS011;11972;48.078;11.876;2023-11-21T03:37:02;3.35;;;0.80;;
23588;SDS011;11972;48.078;11.876;2023-11-21T03:41:02;2.75;;;0.60;;
23588;SDS011;11972;48.078;11.876;2023-11-21T03:45:03;3.65;;;0.57;;
23588;SDS011;11972;48.078;11.876;2023-11-21T03:49:04;2.78;;;0.70;;
23588;SDS011;11972;48.078;11.876;2023-11-21T03:53:04;3.72;;;0.88;;
23588;SDS011;11972;48.078;11.876;2023-11-21T03:57:05;4.03;;;0.80;;
23588;SDS011;11972;48.078;11.876;2023-11-21T04:01:05;4.18;;;0.88;;
23588;SDS011;11972;48.078;11.876;2023-11-21T04:05:06;3.90;;;0.80;;
23588;SDS011;11972;48.078;11.876;2023-11-21T04:09:07;1.73;;;0.70;;
23588;SDS011;11972;48.078;11.876;2023-11-21T04:13:07;3.92;;;1.02;;
23588;SDS011;11972;48.078;11.876;2023-11-21T04:17:07;2.08;;;0.65;;
23588;SDS011;11972;48.078;11.876;2023-11-21T04:21:08;2.78;;;0.60;;
23588;SDS011;11972;48.078;11.876;2023-11-21T04:25:09;3.92;;;0.80;;
23588;SDS011;11972;48.078;11.876;2023-11-21T04:29:13;2.88;;;0.40;;
23588;SDS011;11972;48.078;11.876;2023-11-21T04:33:13;4.18;;;0.50;;
23588;SDS011;11972;48.078;11.876;2023-11-21T04:37:14;1.80;;;0.40;;
23588;SDS011;11972;48.078;11.876;2023-11-21T04:41:14;1.92;;;0.60;;
23588;SDS011;11972;48.078;11.876;2023-11-21T04:45:14;1.73;;;0.50;;
23588;SDS011;11972;48.078;11.876;2023-11-21T04:49:15;3.20;;;0.85;;
23588;SDS011;11972;48.078;11.876;2023-11-21T04:53:16;2.10;;;0.60;;
23588;SDS011;11972;48.078;11.876;2023-11-21T04:57:16;3.58;;;0.65;;
23588;SDS011;11972;48.078;11.876;2023-11-21T05:01:18;3.05;;;0.77;;
23588;SDS011;11972;48.078;11.876;2023-11-21T05:05:19;2.28;;;0.65;;
23588;SDS011;11972;48.078;11.876;2023-11-21T05:09:19;2.67;;;0.50;;
23588;SDS011;11972;48.078;11.876;2023-11-21T05:13:20;2.05;;;0.52;;
23588;SDS011;11972;48.078;11.876;2023-11-21T05:17:20;2.75;;;0.60;;
23588;SDS011;11972;48.078;11.876;2023-11-21T05:21:21;3.03;;;0.50;;
23588;SDS011;11972;48.078;11.876;2023-11-21T05:25:21;4.07;;;0.50;;
23588;SDS011;11972;48.078;11.876;2023-11-21T05:29:21;3.63;;;0.55;;
23588;SDS011;11972;48.078;11.876;2023-11-21T05:33:22;1.25;;;0.47;;
23588;SDS011;11972;48.078;11.876;2023-11-21T05:37:22;2.75;;;0.88;;
23588;SDS011;11972;48.078;11.876;2023-11-21T05:41:23;1.60;;;0.40;;
23588;SDS011;11972;48.078;11.876;2023-11-21T05:45:23;2.38;;;0.50;;
23588;SDS011;11972;48.078;11.876;2023-11-21T05:49:24;1.83;;;0.47;;
23588;SDS011;11972;48.078;11.876;2023-11-21T05:53:26;1.05;;;0.40;;
23588;SDS011;11972;48.078;11.876;2023-11-21T05:57:26;1.83;;;0.50;;
23588;SDS011;11972;48.078;11.876;2023-11-21T06:01:27;2.20;;;0.50;;
23588;SDS011;11972;48.078;11.876;2023-11-21T06:05:30;2.85;;;0.50;;
23588;SDS011;11972;48.078;11.876;2023-11-21T06:09:32;2.35;;;0.30;;
23588;SDS011;11972;48.078;11.876;2023-11-21T06:13:32;0.80;;;0.30;;
23588;SDS011;11972;48.078;11.876;2023-11-21T06:17:32;0.98;;;0.40;;
23588;SDS011;11972;48.078;11.876;2023-11-21T06:21:36;2.25;;;0.43;;
23588;SDS011;11972;48.078;11.876;2023-11-21T06:25:36;1.02;;;0.47;;
23588;SDS011;11972;48.078;11.876;2023-11-21T06:29:37;5.65;;;4.13;;
23588;SDS011;11972;48.078;11.876;2023-11-21T06:33:37;2.10;;;0.60;;
23588;SDS011;11972;48.078;11.876;2023-11-21T06:37:38;1.73;;;0.75;;
23588;SDS011;11972;48.078;11.876;2023-11-21T06:41:38;1.83;;;0.63;;
23588;SDS011;11972;48.078;11.876;2023-11-21T06:45:39;2.47;;;0.43;;
23588;SDS011;11972;48.078;11.876;2023-11-21T06:49:39;2.30;;;0.95;;
23588;SDS011;11972;48.078;11.876;2023-11-21T06:53:39;5.25;;;2.38;;
23588;SDS011;11972;48.078;11.876;2023-11-21T06:57:40;2.70;;;1.40;;
23588;SDS011;11972;48.078;11.876;2023-11-21T07:01:40;1.00;;;0.70;;
23588;SDS011;11972;48.078;11.876;2023-11-21T07:05:41;3.00;;;0.70;;
23588;SDS011;11972;48.078;11.876;2023-11-21T07:09:42;0.70;;;0.30;;
23588;SDS011;11972;48.078;11.876;2023-11-21T07:13:42;2.15;;;0.40;;
23588;SDS011;11972;48.078;11.876;2023-11-21T07:17:42;2.63;;;0.70;;
23588;SDS011;11972;48.078;11.876;2023-11-21T07:21:44;2.63;;;0.50;;
23588;SDS011;11972;48.078;11.876;2023-11-21T07:25:44;1.50;;;0.40;;
23588;SDS011;11972;48.078;11.876;2023-11-21T07:29:44;3.03;;;1.40;;
23588;SDS011;11972;48.078;11.876;2023-11-21T07:33:45;2.67;;;1.83;;
23588;SDS011;11972;48.078;11.876;2023-11-21T07:37:49;4.30;;;2.30;;
23588;SDS011;11972;48.078;11.876;2023-11-21T07:41:49;3.42;;;0.60;;
23588;SDS011;11972;48.078;11.876;2023-11-21T07:45:49;0.52;;;0.30;;
23588;SDS011;11972;48.078;11.876;2023-11-21T07:49:50;1.52;;;0.63;;
23588;SDS011;11972;48.078;11.876;2023-11-21T07:53:50;1.80;;;0.50;;
23588;SDS011;11972;48.078;11.876;2023-11-21T07:57:50;1.88;;;0.45;;
23588;SDS011;11972;48.078;11.876;2023-11-21T08:01:51;4.50;;;0.40;;
23588;SDS011;11972;48.078;11.876;2023-11-21T08:05:51;1.27;;;0.30;;
23588;SDS011;11972;48.078;11.876;2023-11-21T08:09:51;1.92;;;0.38;;
23588;SDS011;11972;48.078;11.876;2023-11-21T08:13:52;2.55;;;0.63;;
23588;SDS011;11972;48.078;11.876;2023-11-21T08:17:54;1.88;;;0.63;;
23588;SDS011;11972;48.078;11.876;2023-11-21T08:21:54;2.25;;;0.52;;
23588;SDS011;11972;48.078;11.876;2023-11-21T08:25:55;0.75;;;0.40;;
23588;SDS011;11972;48.078;11.876;2023-11-21T08:29:55;1.05;;;0.40;;
23588;SDS011;11972;48.078;11.876;2023-11-21T08:33:57;0.82;;;0.40;;
23588;SDS011;11972;48.078;11.876;2023-11-21T08:37:57;1.92;;;0.40;;
23588;SDS011;11972;48.078;11.876;2023-11-21T08:41:57;1.35;;;0.35;;
23588;SDS011;11972;48.078;11.876;2023-11-21T08:45:58;2.08;;;0.35;;
23588;SDS011;11972;48.078;11.876;2023-11-21T08:49:58;1.75;;;0.30;;
23588;SDS011;11972;48.078;11.876;2023-11-21T08:53:58;1.02;;;0.30;;
23588;SDS011;11972;48.078;11.876;2023-11-21T08:58:00;2.30;;;0.40;;
23588;SDS011;11972;48.078;11.876;2023-11-21T09:02:01;1.13;;;0.40;;
23588;SDS011;11972;48.078;11.876;2023-11-21T09:06:01;0.63;;;0.30;;
23588;SDS011;11972;48.078;11.876;2023-11-21T09:10:02;1.05;;;0.40;;
23588;SDS011;11972;48.078;11.876;2023-11-21T09:14:04;0.60;;;0.40;;
23588;SDS011;11972;48.078;11.876;2023-11-21T09:18:04;1.25;;;0.40;;
23588;SDS011;11972;48.078;11.876;2023-11-21T09:22:05;1.60;;;0.40;;
23588;SDS011;11972;48.078;11.876;2023-11-21T09:26:05;1.92;;;0.40;;
23588;SDS011;11972;48.078;11.876;2023-11-21T09:30:06;1.20;;;0.50;;
23588;SDS011;11972;48.078;11.876;2023-11-21T09:34:10;0.73;;;0.20;;
23588;SDS011;11972;48.078;11.876;2023-11-21T09:38:11;1.90;;;1.05;;
23588;SDS011;11972;48.078;11.876;2023-11-21T09:42:12;1.60;;;0.40;;
23588;SDS011;11972;48.078;11.876;2023-11-21T09:46:16;0.70;;;0.30;;
23588;SDS011;11972;48.078;11.876;2023-11-21T09:50:21;1.05;;;0.30;;
23588;SDS011;11972;48.078;11.876;2023-11-21T09:54:22;0.70;;;0.30;;
23588;SDS011;11972;48.078;11.876;2023-11-21T09:58:23;1.35;;;0.30;;
23588;SDS011;11972;48.078;11.876;2023-11-21T10:02:25;0.60;;;0.30;;
23588;SDS011;11972;48.078;11.876;2023-11-21T10:06:28;0.98;;;0.38;;
23588;SDS011;11972;48.078;11.876;2023-11-21T10:10:30;1.08;;;0.40;;
23588;SDS011;11972;48.078;11.876;2023-11-21T10:14:32;0.85;;;0.38;;
23588;SDS011;11972;48.078;11.876;2023-11-21T10:18:34;0.60;;;0.22;;
23588;SDS011;11972;48.078;11.876;2023-11-21T10:22:38;1.65;;;0.40;;
23588;SDS011;11972;48.078;11.876;2023-11-21T10:26:43;0.70;;;0.40;;
23588;SDS011;11972;48.078;11.876;2023-11-21T10:30:43;2.25;;;0.40;;
23588;SDS011;11972;48.078;11.876;2023-11-21T10:34:55;1.48;;;0.43;;
23588;SDS011;11972;48.078;11.876;2023-11-21T10:38:56;1.15;;;0.38;;
23588;SDS011;11972;48.078;11.876;2023-11-21T10:43:05;1.67;;;0.40;;
23588;SDS011;11972;48.078;11.876;2023-11-21T10:47:08;1.10;;;0.40;;
23588;SDS011;11972;48.078;11.876;2023-11-21T10:51:08;1.33;;;0.40;;
23588;SDS011;11972;48.078;11.876;2023-11-21T10:55:18;1.30;;;0.30;;
23588;SDS011;11972;48.078;11.876;2023-11-21T10:59:21;1.80;;;0.65;;
23588;SDS011;11972;48.078;11.876;2023-11-21T11:03:25;1.27;;;0.70;;
23588;SDS011;11972;48.078;11.876;2023-11-21T11:07:26;1.38;;;0.60;;
23588;SDS011;11972;48.078;11.876;2023-11-21T11:11:28;1.30;;;0.40;;
23588;SDS011;11972;48.078;11.876;2023-11-21T11:15:30;1.13;;;0.47;;
23588;SDS011;11972;48.078;11.876;2023-11-21T11:19:30;0.70;;;0.45;;
23588;SDS011;11972;48.078;11.876;2023-11-21T11:28:02;1.20;;;0.40;;
23588;SDS011;11972;48.078;11.876;2023-11-21T11:32:19;1.10;;;0.22;;
23588;SDS011;11972;48.078;11.876;2023-11-21T11:36:29;0.40;;;0.40;;
23588;SDS011;11972;48.078;11.876;2023-11-21T11:40:38;1.05;;;0.40;;
23588;SDS011;11972;48.078;11.876;2023-11-21T11:49:02;1.77;;;0.50;;
23588;SDS011;11972;48.078;11.876;2023-11-21T11:53:13;2.05;;;0.50;;
23588;SDS011;11972;48.078;11.876;2023-11-21T11:57:14;2.25;;;0.50;;
23588;SDS011;11972;48.078;11.876;2023-11-21T12:01:21;1.55;;;0.40;;
23588;SDS011;11972;48.078;11.876;2023-11-21T12:05:22;2.88;;;1.00;;
23588;SDS011;11972;48.078;11.876;2023-11-21T12:09:23;2.05;;;0.60;;
23588;SDS011;11972;48.078;11.876;2023-11-21T12:13:23;1.55;;;0.52;;
23588;SDS011;11972;48.078;11.876;2023-11-21T12:17:24;1.02;;;0.50;;
23588;SDS011;11972;48.078;11.876;2023-11-21T12:21:24;1.40;;;0.40;;
23588;SDS011;11972;48.078;11.876;2023-11-21T12:25:26;0.98;;;0.32;;
23588;SDS011;11972;48.078;11.876;2023-11-21T12:29:32;1.23;;;0.40;;
23588;SDS011;11972;48.078;11.876;2023-11-21T12:33:33;1.00;;;0.40;;
23588;SDS011;11972;48.078;11.876;2023-11-21T12:37:33;2.20;;;0.45;;
23588;SDS011;11972;48.078;11.876;2023-11-21T12:41:34;1.30;;;0.60;;
23588;SDS011;11972;48.078;11.876;2023-11-21T12:45:35;1.80;;;0.55;;
23588;SDS011;11972;48.078;11.876;2023-11-21T12:49:35;1.47;;;0.60;;
23588;SDS011;11972;48.078;11.876;2023-11-21T12:53:37;1.45;;;0.50;;
23588;SDS011;11972;48.078;11.876;2023-11-21T12:57:40;1.10;;;0.30;;
23588;SDS011;11972;48.078;11.876;2023-11-21T13:01:43;1.00;;;0.45;;
23588;SDS011;11972;48.078;11.876;2023-11-21T13:05:44;0.90;;;0.50;;
23588;SDS011;11972;48.078;11.876;2023-11-21T13:09:46;2.17;;;0.60;;
23588;SDS011;11972;48.078;11.876;2023-11-21T13:13:46;1.30;;;0.43;;
23588;SDS011;11972;48.078;11.876;2023-11-21T13:17:46;2.47;;;0.70;;
23588;SDS011;11972;48.078;11.876;2023-11-21T13:21:47;1.30;;;0.50;;
23588;SDS011;11972;48.078;11.876;2023-11-21T13:25:48;1.67;;;0.37;;
23588;SDS011;11972;48.078;11.876;2023-11-21T13:29:49;1.67;;;0.40;;
23588;SDS011;11972;48.078;11.876;2023-11-21T13:33:49;0.73;;;0.40;;
23588;SDS011;11972;48.078;11.876;2023-11-21T13:37:56;1.35;;;0.20;;
23588;SDS011;11972;48.078;11.876;2023-11-21T13:41:59;0.90;;;0.40;;
23588;SDS011;11972;48.078;11.876;2023-11-21T13:46:00;0.98;;;0.30;;
23588;SDS011;11972;48.078;11.876;2023-11-21T13:50:13;0.30;;;0.15;;
23588;SDS011;11972;48.078;11.876;2023-11-21T13:54:19;0.13;;;0.10;;
23588;SDS011;11972;48.078;11.876;2023-11-21T13:58:21;0.45;;;0.15;;
23588;SDS011;11972;48.078;11.876;2023-11-21T14:02:39;1.55;;;0.20;;
23588;SDS011;11972;48.078;11.876;2023-11-21T14:06:43;0.45;;;0.20;;
23588;SDS011;11972;48.078;11.876;2023-11-21T14:10:48;0.73;;;0.30;;
23588;SDS011;11972;48.078;11.876;2023-11-21T14:14:55;0.25;;;0.20;;
23588;SDS011;11972;48.078;11.876;2023-11-21T14:18:56;0.20;;;0.20;;
23588;SDS011;11972;48.078;11.876;2023-11-21T14:23:02;1.65;;;0.80;;
23588;SDS011;11972;48.078;11.876;2023-11-21T14:27:03;0.40;;;0.20;;
23588;SDS011;11972;48.078;11.876;2023-11-21T14:31:03;0.10;;;0.10;;
23588;SDS011;11972;48.078;11.876;2023-11-21T14:35:04;0.15;;;0.10;;
23588;SDS011;11972;48.078;11.876;2023-11-21T14:39:05;0.40;;;0.20;;
23588;SDS011;11972;48.078;11.876;2023-11-21T14:43:23;1.35;;;0.20;;
23588;SDS011;11972;48.078;11.876;2023-11-21T14:47:24;0.20;;;0.20;;
23588;SDS011;11972;48.078;11.876;2023-11-21T14:51:29;0.95;;;0.40;;
23588;SDS011;11972;48.078;11.876;2023-11-21T14:55:50;0.57;;;0.40;;
23588;SDS011;11972;48.078;11.876;2023-11-21T14:59:50;0.67;;;0.40;;
23588;SDS011;11972;48.078;11.876;2023-11-21T15:03:57;0.88;;;0.70;;
23588;SDS011;11972;48.078;11.876;2023-11-21T15:07:58;2.63;;;0.70;;
23588;SDS011;11972;48.078;11.876;2023-11-21T15:12:13;3.38;;;0.75;;
23588;SDS011;11972;48.078;11.876;2023-11-21T15:16:16;1.20;;;0.80;;
23588;SDS011;11972;48.078;11.876;2023-11-21T15:20:16;0.85;;;0.50;;
23588;SDS011;11972;48.078;11.876;2023-11-21T15:24:21;1.27;;;0.60;;
23588;SDS011;11972;48.078;11.876;2023-11-21T15:28:22;3.65;;;2.42;;
23588;SDS011;11972;48.078;11.876;2023-11-21T15:32:24;2.65;;;1.98;;
23588;SDS011;11972;48.078;11.876;2023-11-21T15:36:26;1.85;;;0.90;;
23588;SDS011;11972;48.078;11.876;2023-11-21T15:40:27;1.15;;;0.60;;
23588;SDS011;11972;48.078;11.876;2023-11-21T15:44:27;2.35;;;0.50;;
23588;SDS011;11972;48.078;11.876;2023-11-21T15:48:28;0.75;;;0.50;;
23588;SDS011;11972;48.078;11.876;2023-11-21T15:52:36;1.40;;;0.55;;
23588;SDS011;11972;48.078;11.876;2023-11-21T15:56:37;1.63;;;0.60;;
23588;SDS011;11972;48.078;11.876;2023-11-21T16:00:38;2.55;;;0.80;;
23588;SDS011;11972;48.078;11.876;2023-11-21T16:04:39;1.42;;;1.00;;
23588;SDS011;11972;48.078;11.876;2023-11-21T16:08:40;2.90;;;2.00;;
23588;SDS011;11972;48.078;11.876;2023-11-21T16:12:41;3.55;;;2.13;;
23588;SDS011;11972;48.078;11.876;2023-11-21T16:16:42;1.98;;;1.55;;
23588;SDS011;11972;48.078;11.876;2023-11-21T16:20:43;1.40;;;1.30;;
23588;SDS011;11972;48.078;11.876;2023-11-21T16:24:44;1.10;;;1.02;;
23588;SDS011;11972;48.078;11.876;2023-11-21T16:28:44;1.87;;;1.70;;
23588;SDS011;11972;48.078;11.876;2023-11-21T16:32:44;1.70;;;1.60;;
23588;SDS011;11972;48.078;11.876;2023-11-21T16:36:45;1.77;;;0.90;;
23588;SDS011;11972;48.078;11.876;2023-11-21T16:40:46;2.28;;;1.35;;
23588;SDS011;11972;48.078;11.876;2023-11-21T16:44:48;2.53;;;1.67;;
23588;SDS011;11972;48.078;11.876;2023-11-21T16:48:48;2.95;;;1.60;;
23588;SDS011;11972;48.078;11.876;2023-11-21T16:52:49;2.78;;;1.38;;
23588;SDS011;11972;48.078;11.876;2023-11-21T16:56:49;2.47;;;1.30;;
23588;SDS011;11972;48.078;11.876;2023-11-21T17:00:49;2.58;;;2.38;;
23588;SDS011;11972;48.078;11.876;2023-11-21T17:04:50;4.35;;;3.70;;
23588;SDS011;11972;48.078;11.876;2023-11-21T17:08:50;4.75;;;4.35;;
23588;SDS011;11972;48.078;11.876;2023-11-21T17:12:51;3.55;;;3.25;;
23588;SDS011;11972;48.078;11.876;2023-11-21T17:16:51;2.55;;;2.35;;
23588;SDS011;11972;48.078;11.876;2023-11-21T17:20:52;2.33;;;2.00;;
23588;SDS011;11972;48.078;11.876;2023-11-21T17:24:52;2.10;;;1.90;;
23588;SDS011;11972;48.078;11.876;2023-11-21T17:28:53;2.17;;;1.90;;
23588;SDS011;11972;48.078;11.876;2023-11-21T17:33:13;2.38;;;1.90;;
23588;SDS011;11972;48.078;11.876;2023-11-21T17:37:15;1.90;;;1.80;;
23588;SDS011;11972;48.078;11.876;2023-11-21T17:41:25;2.10;;;1.80;;
23588;SDS011;11972;48.078;11.876;2023-11-21T17:45:25;2.25;;;2.05;;
23588;SDS011;11972;48.078;11.876;2023-11-21T17:49:26;5.70;;;2.20;;
23588;SDS011;11972;48.078;11.876;2023-11-21T17:53:26;3.85;;;2.28;;
23588;SDS011;11972;48.078;11.876;2023-11-21T17:57:26;2.42;;;2.22;;
23588;SDS011;11972;48.078;11.876;2023-11-21T18:01:27;3.35;;;2.15;;
23588;SDS011;11972;48.078;11.876;2023-11-21T18:05:33;2.92;;;2.40;;
23588;SDS011;11972;48.078;11.876;2023-11-21T18:09:33;3.80;;;3.40;;
23588;SDS011;11972;48.078;11.876;2023-11-21T18:13:34;6.10;;;4.78;;
23588;SDS011;11972;48.078;11.876;2023-11-21T18:17:34;5.88;;;5.03;;
23588;SDS011;11972;48.078;11.876;2023-11-21T18:21:41;4.15;;;3.75;;
23588;SDS011;11972;48.078;11.876;2023-11-21T18:25:42;5.65;;;5.15;;
23588;SDS011;11972;48.078;11.876;2023-11-21T18:29:43;5.80;;;5.30;;
23588;SDS011;11972;48.078;11.876;2023-11-21T18:33:43;8.10;;;7.30;;
23588;SDS011;11972;48.078;11.876;2023-11-21T18:37:44;11.40;;;9.55;;
23588;SDS011;11972;48.078;11.876;2023-11-21T18:41:46;16.38;;;9.55;;
23588;SDS011;11972;48.078;11.876;2023-11-21T18:45:46;11.27;;;7.35;;
23588;SDS011;11972;48.078;11.876;2023-11-21T18:49:47;5.13;;;3.80;;
23588;SDS011;11972;48.078;11.876;2023-11-21T18:53:47;7.18;;;5.03;;
23588;SDS011;11972;48.078;11.876;2023-11-21T18:57:47;15.48;;;8.07;;
23588;SDS011;11972;48.078;11.876;2023-11-21T19:01:48;21.23;;;7.75;;
23588;SDS011;11972;48.078;11.876;2023-11-21T19:05:49;8.55;;;6.70;;
23588;SDS011;11972;48.078;11.876;2023-11-21T19:09:49;5.88;;;4.22;;
23588;SDS011;11972;48.078;11.876;2023-11-21T19:13:51;4.13;;;3.42;;
23588;SDS011;11972;48.078;11.876;2023-11-21T19:17:53;5.05;;;3.97;;
23588;SDS011;11972;48.078;11.876;2023-11-21T19:21:53;5.22;;;4.63;;
23588;SDS011;11972;48.078;11.876;2023-11-21T19:25:54;8.40;;;5.35;;
23588;SDS011;11972;48.078;11.876;2023-11-21T19:29:54;8.52;;;5.95;;
23588;SDS011;11972;48.078;11.876;2023-11-21T19:33:55;10.88;;;7.00;;
23588;SDS011;11972;48.078;11.876;2023-11-21T19:37:57;10.68;;;7.28;;
23588;SDS011;11972;48.078;11.876;2023-11-21T19:41:57;8.98;;;7.10;;
23588;SDS011;11972;48.078;11.876;2023-11-21T19:45:58;8.60;;;6.78;;
23588;SDS011;11972;48.078;11.876;2023-11-21T19:50:02;12.95;;;8.48;;
23588;SDS011;11972;48.078;11.876;2023-11-21T19:54:05;11.80;;;8.07;;
23588;SDS011;11972;48.078;11.876;2023-11-21T19:58:06;14.32;;;8.15;;
23588;SDS011;11972;48.078;11.876;2023-11-21T20:02:12;11.70;;;7.63;;
23588;SDS011;11972;48.078;11.876;2023-11-21T20:10:22;7.65;;;6.68;;
23588;SDS011;11972;48.078;11.876;2023-11-21T20:14:23;9.77;;;7.38;;
23588;SDS011;11972;48.078;11.876;2023-11-21T20:18:25;13.00;;;6.82;;
23588;SDS011;11972;48.078;11.876;2023-11-21T20:22:28;15.90;;;7.75;;
23588;SDS011;11972;48.078;11.876;2023-11-21T20:26:38;7.28;;;6.13;;
23588;SDS011;11972;48.078;11.876;2023-11-21T20:30:44;10.25;;;6.90;;
23588;SDS011;11972;48.078;11.876;2023-11-21T20:34:45;11.98;;;7.93;;
23588;SDS011;11972;48.078;11.876;2023-11-21T20:38:46;9.85;;;7.07;;
23588;SDS011;11972;48.078;11.876;2023-11-21T20:42:47;10.23;;;7.70;;
23588;SDS011;11972;48.078;11.876;2023-11-21T20:46:47;13.57;;;8.48;;
23588;SDS011;11972;48.078;11.876;2023-11-21T20:50:49;14.48;;;9.27;;
23588;SDS011;11972;48.078;11.876;2023-11-21T20:54:52;14.57;;;9.05;;
23588;SDS011;11972;48.078;11.876;2023-11-21T20:58:53;27.08;;;10.77;;
23588;SDS011;11972;48.078;11.876;2023-11-21T21:02:55;15.30;;;9.82;;
23588;SDS011;11972;48.078;11.876;2023-11-21T21:06:56;20.27;;;12.07;;
23588;SDS011;11972;48.078;11.876;2023-11-21T21:10:56;27.20;;;13.98;;
23588;SDS011;11972;48.078;11.876;2023-11-21T21:14:58;26.70;;;15.55;;
23588;SDS011;11972;48.078;11.876;2023-11-21T21:18:59;32.63;;;17.27;;
23588;SDS011;11972;48.078;11.876;2023-11-21T21:23:02;40.83;;;17.85;;
23588;SDS011;11972;48.078;11.876;2023-11-21T21:27:03;34.70;;;17.23;;
23588;SDS011;11972;48.078;11.876;2023-11-21T21:31:03;27.75;;;14.73;;
23588;SDS011;11972;48.078;11.876;2023-11-21T21:35:03;30.17;;;16.77;;
23588;SDS011;11972;48.078;11.876;2023-11-21T21:39:05;27.20;;;17.30;;
23588;SDS011;11972;48.078;11.876;2023-11-21T21:43:06;30.58;;;17.13;;
23588;SDS011;11972;48.078;11.876;2023-11-21T21:47:07;32.90;;;21.40;;
23588;SDS011;11972;48.078;11.876;2023-11-21T21:51:13;30.55;;;21.38;;
23588;SDS011;11972;48.078;11.876;2023-11-21T21:55:15;34.63;;;17.97;;
23588;SDS011;11972;48.078;11.876;2023-11-21T21:59:18;28.33;;;17.60;;
23588;SDS011;11972;48.078;11.876;2023-11-21T22:03:18;30.98;;;18.60;;
23588;SDS011;11972;48.078;11.876;2023-11-21T22:07:19;25.58;;;16.55;;
23588;SDS011;11972;48.078;11.876;2023-11-21T22:11:19;23.80;;;15.63;;
23588;SDS011;11972;48.078;11.876;2023-11-21T22:15:20;28.05;;;17.30;;
23588;SDS011;11972;48.078;11.876;2023-11-21T22:19:20;25.77;;;16.15;;
23588;SDS011;11972;48.078;11.876;2023-11-21T22:23:21;30.13;;;16.80;;
23588;SDS011;11972;48.078;11.876;2023-11-21T22:27:21;28.00;;;16.60;;
23588;SDS011;11972;48.078;11.876;2023-11-21T22:31:22;24.25;;;16.55;;
23588;SDS011;11972;48.078;11.876;2023-11-21T22:35:22;25.05;;;15.65;;
23588;SDS011;11972;48.078;11.876;2023-11-21T22:39:22;30.80;;;17.10;;
23588;SDS011;11972;48.078;11.876;2023-11-21T22:43:23;28.05;;;15.98;;
23588;SDS011;11972;48.078;11.876;2023-11-21T22:47:24;24.50;;;15.95;;
23588;SDS011;11972;48.078;11.876;2023-11-21T22:51:24;21.30;;;16.33;;
23588;SDS011;11972;48.078;11.876;2023-11-21T22:55:25;24.13;;;15.70;;
23588;SDS011;11972;48.078;11.876;2023-11-21T22:59:26;22.85;;;14.95;;
23588;SDS011;11972;48.078;11.876;2023-11-21T23:03:27;21.95;;;14.70;;
23588;SDS011;11972;48.078;11.876;2023-11-21T23:07:29;24.52;;;14.57;;
23588;SDS011;11972;48.078;11.876;2023-11-21T23:11:30;17.88;;;12.68;;
23588;SDS011;11972;48.078;11.876;2023-11-21T23:15:31;18.77;;;13.18;;
23588;SDS011;11972;48.078;11.876;2023-11-21T23:19:31;19.08;;;14.13;;
23588;SDS011;11972;48.078;11.876;2023-11-21T23:23:31;17.10;;;12.55;;
23588;SDS011;11972;48.078;11.876;2023-11-21T23:27:32;16.67;;;11.68;;
23588;SDS011;11972;48.078;11.876;2023-11-21T23:31:32;15.13;;;12.35;;
23588;SDS011;11972;48.078;11.876;2023-11-21T23:35:32;19.27;;;11.82;;
23588;SDS011;11972;48.078;11.876;2023-11-21T23:39:33;15.73;;;12.13;;
23588;SDS011;11972;48.078;11.876;2023-11-21T23:43:33;14.98;;;11.52;;
23588;SDS011;11972;48.078;11.876;2023-11-21T23:47:33;15.45;;;10.93;;
23588;SDS011;11972;48.078;11.876;2023-11-21T23:51:34;18.65;;;11.85;;
23588;SDS011;11972;48.078;11.876;2023-11-21T23:55:34;16.33;;;11.23;;
23588;SDS011;11972;48.078;11.876;2023-11-21T23:59:34;16.35;;;11.07;;
